Time;durP1;ratioP1;P1;durP2;ratioP2;P2;SDS_P1;SDS_P2;PMS_P1;PMS_P2;Temp;Humidity;BMP_temperature;BMP_pressure;BME280_temperature;BME280_humidity;BME280_pressure;Samples;Min_cycle;Max_cycle;Signal;HPM_P1;HPM_P2
2022/01/25 00:28:45;;;;;;;0.73;0.30;;;;;;;;;;5054684;28;20021;-64
2022/01/25 00:31:15;;;;;;;0.43;0.30;;;;;;;;;;5054032;28;20059;-64
2022/01/25 00:33:41;;;;;;;0.52;0.15;;;;;;;;;;5054225;28;20044;-64
2022/01/25 00:36:08;;;;;;;1.33;0.20;;;;;;;;;;5054416;28;20417;-64
2022/01/25 00:38:33;;;;;;;0.52;0.32;;;;;;;;;;5054173;28;20029;-64
2022/01/25 00:40:59;;;;;;;0.73;0.20;;;;;;;;;;5054271;28;20037;-64
2022/01/25 00:43:26;;;;;;;0.17;0.10;;;;;;;;;;5053860;28;20020;-64
2022/01/25 00:45:54;;;;;;;0.13;0.13;;;;;;;;;;5054521;28;20028;-64
2022/01/25 00:48:30;;;;;;;0.93;0.40;;;;;;;;;;5054045;28;20377;-63
2022/01/25 00:51:13;;;;;;;0.57;0.17;;;;;;;;;;5053030;28;20025;-64
2022/01/25 00:53:59;;;;;;;0.35;0.25;;;;;;;;;;5053863;28;20558;-64
2022/01/25 00:56:26;;;;;;;0.50;0.38;;;;;;;;;;5053785;28;20087;-64
2022/01/25 00:58:51;;;;;;;0.30;0.20;;;;;;;;;;5053892;28;20032;-64
2022/01/25 01:01:17;;;;;;;0.10;0.10;;;;;;;;;;5053743;28;20029;-63
2022/01/25 01:03:42;;;;;;;0.90;0.20;;;;;;;;;;5053967;28;20087;-64
2022/01/25 01:06:08;;;;;;;0.73;0.20;;;;;;;;;;5053577;28;20576;-64
2022/01/25 01:08:33;;;;;;;0.70;0.20;;;;;;;;;;5053498;28;20249;-64
2022/01/25 01:11:01;;;;;;;0.20;0.10;;;;;;;;;;5053746;28;20411;-64
2022/01/25 01:16:03;;;;;;;0.20;0.20;;;;;;;;;;5053992;28;20021;-64
2022/01/25 01:29:34;;;;;;;0.20;0.10;;;;;;;;;;5053044;28;20099;-64
2022/01/25 01:35:12;;;;;;;1.70;0.10;;;;;;;;;;5053345;28;20022;-64
2022/01/25 01:37:36;;;;;;;0.80;0.20;;;;;;;;;;5052767;28;20350;-64
2022/01/25 01:40:17;;;;;;;1.55;0.20;;;;;;;;;;5053066;28;20400;-63
2022/01/25 01:48:00;;;;;;;0.43;0.10;;;;;;;;;;5053339;28;20029;-64
2022/01/25 01:50:28;;;;;;;0.30;0.20;;;;;;;;;;5052661;28;20021;-64
2022/01/25 01:52:54;;;;;;;0.63;0.10;;;;;;;;;;5052939;28;20013;-64
2022/01/25 01:55:20;;;;;;;0.40;0.10;;;;;;;;;;5052699;28;20021;-65
2022/01/25 01:57:46;;;;;;;0.10;0.10;;;;;;;;;;5052734;28;20479;-63
2022/01/25 02:00:12;;;;;;;0.32;0.13;;;;;;;;;;5052734;28;20028;-65
2022/01/25 02:02:38;;;;;;;0.25;0.10;;;;;;;;;;5052372;28;20033;-64
2022/01/25 02:05:03;;;;;;;0.10;0.10;;;;;;;;;;5050537;23;20077;-64
2022/01/25 02:07:28;;;;;;;1.08;0.10;;;;;;;;;;5032413;28;20097;-64
2022/01/25 02:09:53;;;;;;;0.17;0.00;;;;;;;;;;5032627;28;20025;-64
2022/01/25 02:12:19;;;;;;;0.10;0.10;;;;;;;;;;5032820;28;20017;-64
2022/01/25 02:14:44;;;;;;;0.33;0.33;;;;;;;;;;5032559;28;20021;-63
2022/01/25 02:17:37;;;;;;;0.25;0.20;;;;;;;;;;5032557;28;20257;-64
2022/01/25 02:22:55;;;;;;;0.10;0.08;;;;;;;;;;5032566;28;20060;-64
2022/01/25 02:25:20;;;;;;;0.73;0.10;;;;;;;;;;5031064;28;20049;-64
2022/01/25 02:27:45;;;;;;;0.30;0.30;;;;;;;;;;5032235;28;20033;-64
2022/01/25 02:30:11;;;;;;;0.80;0.10;;;;;;;;;;5032301;28;20420;-64
2022/01/25 02:32:36;;;;;;;0.40;0.30;;;;;;;;;;5032334;28;20024;-63
2022/01/25 02:35:02;;;;;;;1.37;0.23;;;;;;;;;;5032375;28;20635;-64
2022/01/25 02:37:28;;;;;;;0.50;0.20;;;;;;;;;;5032336;28;20022;-64
2022/01/25 02:39:53;;;;;;;0.73;0.10;;;;;;;;;;5032406;28;20022;-64
2022/01/25 02:42:18;;;;;;;0.30;0.30;;;;;;;;;;5032321;28;20377;-64
2022/01/25 02:44:44;;;;;;;0.10;0.10;;;;;;;;;;5032201;28;20259;-64
2022/01/25 02:49:54;;;;;;;0.88;0.20;;;;;;;;;;5032355;28;20071;-63
2022/01/25 02:52:19;;;;;;;0.25;0.15;;;;;;;;;;5032039;28;20033;-64
2022/01/25 02:54:45;;;;;;;0.77;0.20;;;;;;;;;;5031977;28;20087;-64
2022/01/25 02:57:10;;;;;;;0.35;0.20;;;;;;;;;;5032128;28;20021;-64
2022/01/25 02:59:36;;;;;;;0.40;0.10;;;;;;;;;;5031939;28;20599;-64
2022/01/25 03:02:01;;;;;;;0.10;0.10;;;;;;;;;;5032199;28;20263;-64
2022/01/25 03:04:26;;;;;;;0.30;0.10;;;;;;;;;;5031654;28;20033;-64
2022/01/25 03:06:51;;;;;;;0.47;0.13;;;;;;;;;;5032085;28;20025;-64
2022/01/25 03:09:17;;;;;;;1.05;0.30;;;;;;;;;;5031791;28;20018;-64
2022/01/25 03:11:45;;;;;;;1.17;0.20;;;;;;;;;;5031940;28;20750;-64
2022/01/25 03:14:11;;;;;;;0.65;0.10;;;;;;;;;;5032737;28;20064;-64
2022/01/25 03:16:42;;;;;;;0.20;0.10;;;;;;;;;;5036163;28;20013;-64
2022/01/25 03:21:54;;;;;;;1.08;0.55;;;;;;;;;;5036181;28;20067;-64
2022/01/25 03:24:19;;;;;;;0.30;0.15;;;;;;;;;;5035690;28;20025;-64
2022/01/25 03:26:44;;;;;;;0.67;0.30;;;;;;;;;;5034391;28;20411;-64
2022/01/25 03:29:09;;;;;;;0.80;0.30;;;;;;;;;;5035636;28;20354;-63
2022/01/25 03:31:34;;;;;;;0.20;0.15;;;;;;;;;;5035407;28;20377;-64
2022/01/25 03:34:00;;;;;;;0.43;0.20;;;;;;;;;;5034530;28;20024;-63
2022/01/25 03:36:25;;;;;;;0.45;0.30;;;;;;;;;;5035392;28;20946;-64
2022/01/25 03:38:50;;;;;;;0.20;0.20;;;;;;;;;;5035557;28;20029;-64
2022/01/25 03:41:16;;;;;;;0.75;0.30;;;;;;;;;;5035365;28;20372;-64
2022/01/25 03:43:43;;;;;;;0.98;0.70;;;;;;;;;;5035188;28;20463;-64
2022/01/25 03:46:15;;;;;;;0.10;0.10;;;;;;;;;;5035383;28;20047;-63
2022/01/25 03:51:06;;;;;;;0.43;0.10;;;;;;;;;;5035342;28;20014;-63
2022/01/25 03:53:31;;;;;;;0.33;0.20;;;;;;;;;;5035047;28;20053;-64
2022/01/25 03:55:56;;;;;;;0.70;0.20;;;;;;;;;;5035254;28;20247;-64
2022/01/25 03:58:21;;;;;;;0.30;0.17;;;;;;;;;;5035341;28;20033;-64
2022/01/25 04:00:48;;;;;;;0.32;0.10;;;;;;;;;;5035134;28;20028;-64
2022/01/25 04:03:19;;;;;;;0.25;0.20;;;;;;;;;;5035228;28;20026;-64
2022/01/25 04:08:10;;;;;;;0.98;0.15;;;;;;;;;;5015186;28;20053;-63
2022/01/25 04:10:35;;;;;;;0.38;0.20;;;;;;;;;;5014917;28;20386;-64
2022/01/25 04:13:01;;;;;;;0.13;0.10;;;;;;;;;;5013828;28;20028;-63
2022/01/25 04:15:26;;;;;;;0.22;0.13;;;;;;;;;;5014708;28;20278;-64
2022/01/25 04:18:01;;;;;;;0.40;0.20;;;;;;;;;;5015669;28;20026;-64
2022/01/25 04:20:31;;;;;;;0.60;0.40;;;;;;;;;;5014845;28;20381;-65
2022/01/25 04:25:40;;;;;;;0.47;0.30;;;;;;;;;;5014734;28;20076;-64
2022/01/25 04:28:05;;;;;;;0.53;0.40;;;;;;;;;;5014824;28;20026;-64
2022/01/25 04:30:31;;;;;;;0.90;0.45;;;;;;;;;;5014616;28;20846;-64
2022/01/25 04:33:03;;;;;;;0.45;0.10;;;;;;;;;;5014707;28;20025;-64
2022/01/25 04:49:06;;;;;;;0.32;0.20;;;;;;;;;;5014375;28;20033;-64
2022/01/25 04:59:24;;;;;;;0.22;0.13;;;;;;;;;;5014543;28;20022;-64
2022/01/25 05:01:52;;;;;;;0.50;0.30;;;;;;;;;;5014243;28;20022;-65
2022/01/25 05:04:25;;;;;;;0.68;0.15;;;;;;;;;;5012621;28;20045;-64
2022/01/25 05:06:53;;;;;;;0.47;0.20;;;;;;;;;;5014104;28;20469;-64
2022/01/25 05:09:20;;;;;;;0.32;0.10;;;;;;;;;;5014116;28;20057;-64
2022/01/25 05:11:48;;;;;;;0.17;0.10;;;;;;;;;;5013889;28;20412;-64
2022/01/25 05:22:25;;;;;;;0.40;0.10;;;;;;;;;;4991718;28;20030;-64
2022/01/25 05:24:50;;;;;;;0.40;0.20;;;;;;;;;;4991846;28;20022;-64
2022/01/25 05:27:17;;;;;;;0.43;0.25;;;;;;;;;;4991578;28;20023;-64
2022/01/25 05:29:43;;;;;;;0.17;0.10;;;;;;;;;;4991464;28;20042;-65
2022/01/25 05:32:08;;;;;;;0.20;0.20;;;;;;;;;;4991705;28;20157;-64
2022/01/25 05:34:33;;;;;;;0.73;0.22;;;;;;;;;;4991526;28;20046;-64
2022/01/25 05:36:59;;;;;;;0.73;0.20;;;;;;;;;;4991089;28;20394;-64
2022/01/25 05:39:29;;;;;;;0.60;0.20;;;;;;;;;;4991230;28;20029;-64
2022/01/25 05:42:01;;;;;;;0.10;0.10;;;;;;;;;;4991487;28;20120;-65
2022/01/25 05:49:23;;;;;;;0.70;0.17;;;;;;;;;;4990990;28;20389;-64
2022/01/25 05:51:48;;;;;;;0.28;0.20;;;;;;;;;;4991266;28;20114;-64
2022/01/25 05:54:13;;;;;;;0.30;0.30;;;;;;;;;;4993107;28;20029;-65
2022/01/25 05:56:39;;;;;;;0.85;0.20;;;;;;;;;;5013299;28;20049;-64
2022/01/25 05:59:04;;;;;;;0.47;0.13;;;;;;;;;;5011822;28;20018;-64
2022/01/25 06:01:29;;;;;;;0.45;0.20;;;;;;;;;;5012835;28;20488;-64
2022/01/25 06:03:55;;;;;;;1.00;0.20;;;;;;;;;;5011697;28;20026;-64
2022/01/25 06:06:20;;;;;;;1.05;0.25;;;;;;;;;;5012923;28;20021;-64
2022/01/25 06:08:45;;;;;;;0.20;0.10;;;;;;;;;;5013204;28;20068;-64
2022/01/25 06:11:10;;;;;;;0.40;0.13;;;;;;;;;;5012109;28;20022;-64
2022/01/25 06:13:36;;;;;;;0.47;0.10;;;;;;;;;;5014730;28;20272;-64
2022/01/25 06:16:01;;;;;;;0.67;0.37;;;;;;;;;;5012327;28;20026;-64
2022/01/25 06:18:26;;;;;;;0.10;0.10;;;;;;;;;;5011033;28;20025;-64
2022/01/25 06:20:51;;;;;;;0.50;0.20;;;;;;;;;;5010673;28;20036;-64
2022/01/25 06:23:16;;;;;;;0.10;0.10;;;;;;;;;;5012492;28;20026;-64
2022/01/25 06:25:41;;;;;;;0.40;0.30;;;;;;;;;;5012654;28;20044;-64
2022/01/25 06:28:07;;;;;;;0.13;0.10;;;;;;;;;;5011525;28;20064;-64
2022/01/25 06:30:32;;;;;;;0.68;0.20;;;;;;;;;;5012519;28;20025;-65
2022/01/25 06:32:57;;;;;;;0.63;0.20;;;;;;;;;;5012674;28;20036;-64
2022/01/25 06:35:22;;;;;;;0.90;0.63;;;;;;;;;;5012508;28;20024;-64
2022/01/25 06:37:48;;;;;;;0.40;0.30;;;;;;;;;;5012602;28;20029;-64
2022/01/25 06:40:14;;;;;;;1.85;0.47;;;;;;;;;;5011261;28;20260;-64
2022/01/25 06:42:39;;;;;;;0.30;0.20;;;;;;;;;;5012533;28;20470;-65
2022/01/25 06:45:10;;;;;;;0.20;0.10;;;;;;;;;;5012548;28;20105;-64
2022/01/25 06:47:36;;;;;;;0.35;0.15;;;;;;;;;;5012327;28;20042;-64
2022/01/25 06:50:01;;;;;;;1.23;0.30;;;;;;;;;;5011708;28;20060;-64
2022/01/25 06:52:26;;;;;;;0.63;0.35;;;;;;;;;;5012542;28;20052;-64
2022/01/25 06:54:51;;;;;;;0.68;0.30;;;;;;;;;;5012458;28;20025;-65
2022/01/25 06:57:18;;;;;;;1.05;0.28;;;;;;;;;;5012390;28;20378;-64
2022/01/25 06:59:43;;;;;;;2.20;0.40;;;;;;;;;;5012308;28;20500;-64
2022/01/25 07:02:08;;;;;;;0.55;0.28;;;;;;;;;;5012442;28;20069;-64
2022/01/25 07:04:34;;;;;;;0.50;0.20;;;;;;;;;;5012243;28;20046;-64
2022/01/25 07:06:59;;;;;;;0.53;0.33;;;;;;;;;;5012293;28;20041;-65
2022/01/25 07:09:24;;;;;;;0.68;0.20;;;;;;;;;;5011975;28;20263;-64
2022/01/25 07:11:49;;;;;;;0.17;0.17;;;;;;;;;;5012292;28;20034;-64
2022/01/25 07:14:14;;;;;;;0.52;0.20;;;;;;;;;;5012180;28;20382;-64
2022/01/25 07:16:39;;;;;;;0.73;0.10;;;;;;;;;;5027415;28;20014;-65
2022/01/25 07:19:04;;;;;;;0.65;0.10;;;;;;;;;;5012220;28;20397;-64
2022/01/25 07:21:30;;;;;;;0.10;0.10;;;;;;;;;;5012003;28;20029;-64
2022/01/25 07:23:55;;;;;;;0.37;0.20;;;;;;;;;;5012269;28;20483;-64
2022/01/25 07:26:20;;;;;;;0.40;0.27;;;;;;;;;;5012091;28;20251;-65
2022/01/25 07:28:46;;;;;;;0.33;0.30;;;;;;;;;;5012277;28;20248;-64
2022/01/25 07:31:12;;;;;;;0.45;0.30;;;;;;;;;;5012067;28;20259;-65
2022/01/25 07:33:37;;;;;;;0.20;0.20;;;;;;;;;;5011962;28;20022;-64
2022/01/25 07:36:04;;;;;;;0.87;0.20;;;;;;;;;;5012197;28;20376;-64
2022/01/25 07:38:30;;;;;;;1.30;0.30;;;;;;;;;;5012069;28;20263;-65
2022/01/25 07:40:55;;;;;;;0.50;0.22;;;;;;;;;;4998605;28;20463;-64
2022/01/25 07:43:20;;;;;;;0.35;0.10;;;;;;;;;;4992329;28;20026;-65
2022/01/25 07:45:51;;;;;;;0.85;0.20;;;;;;;;;;5021420;28;20544;-64
2022/01/25 07:48:16;;;;;;;0.28;0.20;;;;;;;;;;5013650;28;20284;-64
2022/01/25 07:50:41;;;;;;;0.13;0.10;;;;;;;;;;5005152;28;20066;-65
2022/01/25 07:53:06;;;;;;;0.77;0.23;;;;;;;;;;5011825;28;20267;-64
2022/01/25 07:55:32;;;;;;;0.77;0.20;;;;;;;;;;5011779;28;20290;-64
2022/01/25 07:57:57;;;;;;;0.63;0.10;;;;;;;;;;5011907;28;20271;-64
2022/01/25 08:00:22;;;;;;;0.32;0.10;;;;;;;;;;5015231;28;20036;-64
2022/01/25 08:02:48;;;;;;;0.50;0.30;;;;;;;;;;5025939;28;20029;-65
2022/01/25 08:05:14;;;;;;;1.52;0.20;;;;;;;;;;5029202;28;20092;-64
2022/01/25 08:07:40;;;;;;;1.27;0.30;;;;;;;;;;5013684;28;20105;-64
2022/01/25 08:10:05;;;;;;;1.98;0.50;;;;;;;;;;5014366;28;20029;-64
2022/01/25 08:12:31;;;;;;;3.03;0.60;;;;;;;;;;5014467;28;20026;-64
2022/01/25 08:14:58;;;;;;;2.05;0.32;;;;;;;;;;5014059;28;20014;-67
2022/01/25 08:17:23;;;;;;;2.28;0.70;;;;;;;;;;5014233;28;20029;-68
2022/01/25 08:19:48;;;;;;;3.17;0.40;;;;;;;;;;5014290;28;20382;-67
2022/01/25 08:22:13;;;;;;;1.23;0.40;;;;;;;;;;5012740;28;20061;-69
2022/01/25 08:24:39;;;;;;;1.50;0.40;;;;;;;;;;5014098;28;20757;-68
2022/01/25 08:27:04;;;;;;;0.40;0.33;;;;;;;;;;5013961;28;20275;-67
2022/01/25 08:29:29;;;;;;;2.13;0.50;;;;;;;;;;5012744;28;20358;-67
2022/01/25 08:31:54;;;;;;;0.30;0.22;;;;;;;;;;5014694;28;20052;-67
2022/01/25 08:34:19;;;;;;;1.90;0.40;;;;;;;;;;5013350;28;20060;-68
2022/01/25 08:36:45;;;;;;;0.20;0.10;;;;;;;;;;5014621;28;20336;-68
2022/01/25 08:39:10;;;;;;;0.75;0.20;;;;;;;;;;5028451;28;20068;-68
2022/01/25 08:41:35;;;;;;;0.40;0.30;;;;;;;;;;5013837;28;20022;-68
2022/01/25 08:44:01;;;;;;;0.38;0.30;;;;;;;;;;5009196;28;20422;-66
2022/01/25 08:46:26;;;;;;;1.33;0.20;;;;;;;;;;5009226;28;20053;-68
2022/01/25 08:48:51;;;;;;;0.20;0.20;;;;;;;;;;5009375;28;20037;-67
2022/01/25 08:51:17;;;;;;;0.40;0.30;;;;;;;;;;5005760;28;20104;-67
2022/01/25 08:53:42;;;;;;;0.88;0.30;;;;;;;;;;5011451;28;20032;-67
2022/01/25 08:56:08;;;;;;;0.52;0.30;;;;;;;;;;5010824;28;20370;-67
2022/01/25 08:58:33;;;;;;;0.77;0.20;;;;;;;;;;5011931;28;20020;-68
2022/01/25 09:00:59;;;;;;;0.50;0.20;;;;;;;;;;5011277;28;20025;-68
2022/01/25 09:03:24;;;;;;;0.63;0.20;;;;;;;;;;5017056;28;20018;-67
2022/01/25 09:05:49;;;;;;;0.50;0.50;;;;;;;;;;5010522;28;20045;-68
2022/01/25 09:08:20;;;;;;;0.63;0.35;;;;;;;;;;5013001;28;20821;-67
2022/01/25 09:10:45;;;;;;;0.38;0.20;;;;;;;;;;5017495;28;20017;-67
2022/01/25 09:13:10;;;;;;;0.20;0.20;;;;;;;;;;5014568;28;20450;-67
2022/01/25 09:15:35;;;;;;;0.17;0.17;;;;;;;;;;5012537;28;20040;-68
2022/01/25 09:18:01;;;;;;;0.83;0.20;;;;;;;;;;5012908;28;20251;-67
2022/01/25 09:20:26;;;;;;;0.33;0.10;;;;;;;;;;5012310;28;20981;-67
2022/01/25 09:22:51;;;;;;;0.73;0.40;;;;;;;;;;5012304;28;20263;-67
2022/01/25 09:25:16;;;;;;;0.73;0.28;;;;;;;;;;5010436;28;20018;-67
2022/01/25 09:27:43;;;;;;;0.70;0.20;;;;;;;;;;5012172;28;20025;-67
2022/01/25 09:30:08;;;;;;;0.30;0.30;;;;;;;;;;5005118;28;20026;-67
2022/01/25 09:32:33;;;;;;;0.20;0.20;;;;;;;;;;4993345;28;20347;-67
2022/01/25 09:34:59;;;;;;;0.50;0.10;;;;;;;;;;4992045;28;20040;-67
2022/01/25 09:37:24;;;;;;;0.30;0.27;;;;;;;;;;4993099;28;20719;-67
2022/01/25 09:39:49;;;;;;;0.22;0.13;;;;;;;;;;4993226;28;20260;-66
2022/01/25 09:42:15;;;;;;;0.10;0.10;;;;;;;;;;4995509;28;20048;-67
2022/01/25 09:44:41;;;;;;;0.30;0.10;;;;;;;;;;5008266;28;20259;-67
2022/01/25 09:47:06;;;;;;;0.00;0.00;;;;;;;;;;4993158;28;20034;-67
2022/01/25 09:49:33;;;;;;;0.15;0.08;;;;;;;;;;4992773;28;20030;-68
2022/01/25 09:51:59;;;;;;;0.50;0.47;;;;;;;;;;5010973;28;20064;-67
2022/01/25 09:54:25;;;;;;;0.40;0.20;;;;;;;;;;5011032;28;20010;-67
2022/01/25 09:56:50;;;;;;;0.13;0.10;;;;;;;;;;5011509;28;20029;-67
2022/01/25 09:59:15;;;;;;;0.60;0.47;;;;;;;;;;5011137;28;20060;-67
2022/01/25 10:01:41;;;;;;;0.20;0.20;;;;;;;;;;5011155;28;20025;-67
2022/01/25 10:04:24;;;;;;;0.60;0.10;;;;;;;;;;5010961;28;20018;-67
2022/01/25 10:06:50;;;;;;;0.13;0.10;;;;;;;;;;5011062;28;20063;-67
2022/01/25 10:09:15;;;;;;;0.30;0.20;;;;;;;;;;5011504;28;20100;-67
2022/01/25 10:11:40;;;;;;;0.32;0.10;;;;;;;;;;5011813;28;20095;-67
2022/01/25 10:14:07;;;;;;;0.30;0.10;;;;;;;;;;5012311;28;20045;-66
2022/01/25 10:16:34;;;;;;;0.40;0.30;;;;;;;;;;5011805;28;20291;-67
2022/01/25 10:19:00;;;;;;;1.38;0.22;;;;;;;;;;5012890;28;20470;-67
2022/01/25 10:21:31;;;;;;;0.25;0.20;;;;;;;;;;5011716;28;20270;-67
2022/01/25 10:24:10;;;;;;;0.57;0.10;;;;;;;;;;5027904;28;20061;-67
2022/01/25 10:26:35;;;;;;;0.10;0.10;;;;;;;;;;5012684;28;20022;-66
2022/01/25 10:29:00;;;;;;;0.52;0.20;;;;;;;;;;5013071;28;20069;-66
2022/01/25 10:31:33;;;;;;;0.20;0.08;;;;;;;;;;5012411;28;20024;-66
2022/01/25 10:33:58;;;;;;;0.52;0.20;;;;;;;;;;5012856;28;20373;-67
2022/01/25 10:36:23;;;;;;;0.00;0.00;;;;;;;;;;5012546;28;20106;-67
2022/01/25 10:38:50;;;;;;;0.68;0.17;;;;;;;;;;5012660;28;20239;-66
2022/01/25 10:41:16;;;;;;;0.20;0.10;;;;;;;;;;5012454;28;20453;-67
2022/01/25 10:43:43;;;;;;;0.20;0.10;;;;;;;;;;5011188;28;20111;-66
2022/01/25 10:46:16;;;;;;;0.35;0.15;;;;;;;;;;5012595;28;20029;-67
2022/01/25 10:48:44;;;;;;;0.20;0.10;;;;;;;;;;5027781;28;20029;-66
2022/01/25 10:51:11;;;;;;;0.20;0.00;;;;;;;;;;5012417;28;20390;-66
2022/01/25 10:53:36;;;;;;;0.50;0.13;;;;;;;;;;5012248;28;20030;-66
2022/01/25 10:56:02;;;;;;;0.17;0.17;;;;;;;;;;5012563;28;20030;-66
2022/01/25 10:58:28;;;;;;;0.30;0.20;;;;;;;;;;5012276;28;20021;-67
2022/01/25 11:00:53;;;;;;;0.43;0.20;;;;;;;;;;5012492;28;20029;-66
2022/01/25 11:03:26;;;;;;;0.68;0.40;;;;;;;;;;5012239;28;20025;-66
2022/01/25 11:05:51;;;;;;;0.80;0.17;;;;;;;;;;5012255;28;20092;-66
2022/01/25 11:08:19;;;;;;;0.40;0.30;;;;;;;;;;5012172;28;20034;-67
2022/01/25 11:11:00;;;;;;;0.32;0.10;;;;;;;;;;5012174;28;20030;-67
2022/01/25 11:15:54;;;;;;;1.30;0.57;;;;;;;;;;5012415;28;20101;-67
2022/01/25 11:18:20;;;;;;;0.35;0.10;;;;;;;;;;5012138;28;20526;-66
2022/01/25 11:20:46;;;;;;;0.20;0.20;;;;;;;;;;5012223;28;20030;-66
2022/01/25 11:23:11;;;;;;;0.30;0.30;;;;;;;;;;5011661;28;20072;-66
2022/01/25 11:25:37;;;;;;;0.55;0.17;;;;;;;;;;5011432;28;20085;-66
2022/01/25 11:28:03;;;;;;;0.25;0.20;;;;;;;;;;5011863;28;20025;-66
2022/01/25 11:30:28;;;;;;;0.25;0.20;;;;;;;;;;5011452;28;20109;-66
2022/01/25 11:32:54;;;;;;;2.75;0.77;;;;;;;;;;5011937;28;20606;-66
2022/01/25 11:35:20;;;;;;;0.30;0.10;;;;;;;;;;5007559;28;20553;-66
2022/01/25 11:37:47;;;;;;;0.20;0.10;;;;;;;;;;5015932;28;20469;-66
2022/01/25 11:40:18;;;;;;;1.10;0.20;;;;;;;;;;5016258;28;20114;-67
2022/01/25 11:42:46;;;;;;;0.10;0.10;;;;;;;;;;5026666;28;20030;-66
2022/01/25 11:45:12;;;;;;;0.30;0.10;;;;;;;;;;5035416;28;20248;-66
2022/01/25 11:47:37;;;;;;;0.50;0.20;;;;;;;;;;5035358;28;20054;-66
2022/01/25 11:50:07;;;;;;;0.20;0.10;;;;;;;;;;5035167;28;20021;-66
2022/01/25 11:52:33;;;;;;;0.30;0.20;;;;;;;;;;5032505;28;20028;-66
2022/01/25 11:55:17;;;;;;;0.17;0.10;;;;;;;;;;5013997;28;20098;-67
2022/01/25 11:57:59;;;;;;;1.05;0.30;;;;;;;;;;4995796;28;20037;-67
2022/01/25 12:00:39;;;;;;;0.57;0.10;;;;;;;;;;5034514;28;20037;-66
2022/01/25 12:03:23;;;;;;;0.22;0.20;;;;;;;;;;5035205;28;20100;-66
2022/01/25 12:06:04;;;;;;;0.35;0.20;;;;;;;;;;5034758;28;20635;-66
2022/01/25 12:08:39;;;;;;;0.82;0.20;;;;;;;;;;5033317;28;20428;-66
2022/01/25 12:11:23;;;;;;;0.98;0.20;;;;;;;;;;5022780;28;20029;-66
2022/01/25 12:14:08;;;;;;;0.50;0.40;;;;;;;;;;5009345;28;20482;-66
2022/01/25 12:16:37;;;;;;;0.75;0.20;;;;;;;;;;5022480;28;20254;-66
2022/01/25 12:19:04;;;;;;;0.20;0.10;;;;;;;;;;5030842;28;20483;-67
2022/01/25 12:21:44;;;;;;;0.80;0.20;;;;;;;;;;5014113;28;20332;-66
2022/01/25 12:24:35;;;;;;;0.10;0.10;;;;;;;;;;5014150;28;20405;-67
2022/01/25 12:27:16;;;;;;;0.55;0.28;;;;;;;;;;5014305;28;20053;-66
2022/01/25 12:29:42;;;;;;;0.10;0.10;;;;;;;;;;5014119;28;20028;-69
2022/01/25 12:32:25;;;;;;;0.38;0.10;;;;;;;;;;5013048;28;20025;-68
2022/01/25 12:35:03;;;;;;;0.30;0.10;;;;;;;;;;5029255;28;20030;-67
2022/01/25 12:37:57;;;;;;;0.00;0.00;;;;;;;;;;5014863;28;20018;-68
2022/01/25 12:40:26;;;;;;;0.80;0.05;;;;;;;;;;4972820;28;20046;-69
2022/01/25 12:43:00;;;;;;;3.25;0.52;;;;;;;;;;4980230;28;20018;-68
2022/01/25 12:45:29;;;;;;;1.20;0.20;;;;;;;;;;4991696;28;20474;-68
2022/01/25 12:48:03;;;;;;;0.28;0.15;;;;;;;;;;4990233;28;20079;-69
2022/01/25 12:50:29;;;;;;;0.28;0.10;;;;;;;;;;4991762;28;20450;-69
2022/01/25 12:52:54;;;;;;;1.65;0.13;;;;;;;;;;4992052;28;20540;-69
2022/01/25 12:55:24;;;;;;;0.47;0.28;;;;;;;;;;4992272;28;20069;-69
2022/01/25 12:57:50;;;;;;;1.30;0.20;;;;;;;;;;4991867;28;20048;-69
2022/01/25 13:00:16;;;;;;;0.32;0.20;;;;;;;;;;4991582;28;20478;-68
2022/01/25 13:02:41;;;;;;;0.45;0.30;;;;;;;;;;4991883;28;20125;-69
2022/01/25 13:05:13;;;;;;;0.20;0.10;;;;;;;;;;4991545;28;20046;-69
2022/01/25 13:07:38;;;;;;;0.20;0.13;;;;;;;;;;4991170;28;20498;-68
2022/01/25 13:10:06;;;;;;;0.10;0.10;;;;;;;;;;4991493;28;20061;-69
2022/01/25 13:12:36;;;;;;;0.52;0.20;;;;;;;;;;4991278;28;20478;-68
2022/01/25 13:15:27;;;;;;;0.30;0.10;;;;;;;;;;4991356;28;20033;-69
2022/01/25 13:17:52;;;;;;;0.45;0.22;;;;;;;;;;5012793;28;20038;-68
2022/01/25 13:20:21;;;;;;;0.10;0.10;;;;;;;;;;5013795;28;20024;-69
2022/01/25 13:22:46;;;;;;;0.10;0.10;;;;;;;;;;5013661;28;20095;-68
2022/01/25 13:25:24;;;;;;;0.82;0.30;;;;;;;;;;5019275;28;20044;-68
2022/01/25 13:27:52;;;;;;;0.80;0.35;;;;;;;;;;5013878;28;20050;-68
2022/01/25 13:30:52;;;;;;;1.40;0.20;;;;;;;;;;5013505;28;20052;-68
2022/01/25 13:33:12;;;;;;;0.13;0.10;;;;;;;;;;5013608;28;20033;-68
2022/01/25 13:35:40;;;;;;;0.32;0.10;;;;;;;;;;5013578;28;20014;-68
2022/01/25 13:38:05;;;;;;;1.27;0.20;;;;;;;;;;5013182;28;20018;-68
2022/01/25 13:40:48;;;;;;;0.70;0.10;;;;;;;;;;5028627;28;20068;-68
2022/01/25 13:45:50;;;;;;;0.13;0.10;;;;;;;;;;5013321;28;20059;-68
2022/01/25 13:48:15;;;;;;;0.50;0.20;;;;;;;;;;5013300;28;20430;-69
2022/01/25 13:50:41;;;;;;;0.80;0.30;;;;;;;;;;5013561;28;20313;-69
2022/01/25 13:53:07;;;;;;;0.10;0.10;;;;;;;;;;5013175;28;20026;-68
2022/01/25 13:55:33;;;;;;;0.60;0.25;;;;;;;;;;5013385;28;20049;-68
2022/01/25 13:57:58;;;;;;;0.30;0.10;;;;;;;;;;5013115;28;20462;-68
2022/01/25 14:00:24;;;;;;;0.52;0.17;;;;;;;;;;5030005;28;20029;-68
2022/01/25 14:02:50;;;;;;;0.20;0.10;;;;;;;;;;5027194;28;20029;-69
2022/01/25 14:05:15;;;;;;;0.10;0.10;;;;;;;;;;5023684;28;20045;-68
2022/01/25 14:07:41;;;;;;;0.10;0.10;;;;;;;;;;5011762;28;20028;-68
2022/01/25 14:10:07;;;;;;;0.00;0.00;;;;;;;;;;5012888;28;20057;-68
2022/01/25 14:23:29;;;;;;;0.25;0.10;;;;;;;;;;5012647;28;20037;-68
2022/01/25 14:26:04;;;;;;;0.35;0.35;;;;;;;;;;5017877;28;20034;-68
2022/01/25 14:28:32;;;;;;;0.10;0.10;;;;;;;;;;5026993;28;20033;-68
2022/01/25 14:30:58;;;;;;;0.60;0.10;;;;;;;;;;5023892;28;20029;-68
2022/01/25 14:33:28;;;;;;;0.38;0.20;;;;;;;;;;5027161;28;20014;-68
2022/01/25 14:35:56;;;;;;;0.10;0.10;;;;;;;;;;5011915;28;20064;-68
2022/01/25 14:38:21;;;;;;;1.08;0.10;;;;;;;;;;5011823;28;20014;-68
2022/01/25 14:40:58;;;;;;;0.63;0.20;;;;;;;;;;5011977;28;20374;-68
2022/01/25 14:43:34;;;;;;;0.32;0.10;;;;;;;;;;5010288;28;20029;-67
2022/01/25 14:46:03;;;;;;;0.15;0.13;;;;;;;;;;5023849;28;20032;-67
2022/01/25 14:48:33;;;;;;;0.10;0.00;;;;;;;;;;5011559;28;20018;-68
2022/01/25 14:50:59;;;;;;;0.63;0.10;;;;;;;;;;5007529;28;20044;-69
2022/01/25 14:53:24;;;;;;;0.20;0.20;;;;;;;;;;5012126;28;20517;-68
2022/01/25 14:55:51;;;;;;;0.28;0.10;;;;;;;;;;5012136;28;20014;-68
2022/01/25 15:00:45;;;;;;;0.87;0.37;;;;;;;;;;5012557;28;20029;-69
2022/01/25 15:03:11;;;;;;;0.22;0.08;;;;;;;;;;5012292;28;20274;-70
2022/01/25 15:05:36;;;;;;;0.35;0.10;;;;;;;;;;5007180;28;20050;-69
2022/01/25 15:08:01;;;;;;;0.20;0.03;;;;;;;;;;4998709;28;20030;-70
2022/01/25 15:10:31;;;;;;;0.03;0.00;;;;;;;;;;5012999;28;20406;-69
2022/01/25 15:12:56;;;;;;;0.40;0.15;;;;;;;;;;5015009;28;20018;-70
2022/01/25 15:15:27;;;;;;;0.10;0.10;;;;;;;;;;5015628;28;20045;-69
2022/01/25 15:17:53;;;;;;;0.10;0.10;;;;;;;;;;5015842;28;20079;-69
2022/01/25 15:20:18;;;;;;;0.88;0.10;;;;;;;;;;5016088;28;20027;-69
2022/01/25 15:22:45;;;;;;;0.45;0.10;;;;;;;;;;5015549;28;20030;-69
2022/01/25 15:25:12;;;;;;;0.57;0.20;;;;;;;;;;5016318;28;20101;-70
2022/01/25 15:27:38;;;;;;;0.13;0.10;;;;;;;;;;5015631;28;20083;-69
2022/01/25 15:30:04;;;;;;;0.73;0.10;;;;;;;;;;5015129;28;20497;-70
2022/01/25 15:32:29;;;;;;;0.30;0.25;;;;;;;;;;5015598;28;20017;-70
2022/01/25 15:34:54;;;;;;;0.57;0.17;;;;;;;;;;5015708;28;20040;-70
2022/01/25 15:37:20;;;;;;;0.15;0.00;;;;;;;;;;5014327;28;20271;-70
2022/01/25 15:39:45;;;;;;;0.28;0.10;;;;;;;;;;5015040;28;20105;-69
2022/01/25 15:42:12;;;;;;;0.30;0.05;;;;;;;;;;5030785;28;20508;-73
2022/01/25 15:44:49;;;;;;;0.65;0.13;;;;;;;;;;5014400;28;20022;-69
2022/01/25 15:47:15;;;;;;;1.85;0.38;;;;;;;;;;5015302;28;20033;-71
2022/01/25 15:49:41;;;;;;;0.60;0.10;;;;;;;;;;5030228;28;20022;-69
2022/01/25 15:52:06;;;;;;;0.95;0.10;;;;;;;;;;5014593;28;20022;-73
2022/01/25 15:54:32;;;;;;;0.17;0.10;;;;;;;;;;5013755;28;20025;-69
2022/01/25 15:56:57;;;;;;;0.50;0.20;;;;;;;;;;5014786;28;20401;-68
2022/01/25 15:59:23;;;;;;;0.00;0.00;;;;;;;;;;5015379;28;20034;-70
2022/01/25 16:01:53;;;;;;;3.17;0.22;;;;;;;;;;5015601;28;20068;-70
2022/01/25 16:04:19;;;;;;;2.00;0.13;;;;;;;;;;5030307;28;20504;-69
2022/01/25 16:06:44;;;;;;;0.20;0.00;;;;;;;;;;5015447;28;20556;-69
2022/01/25 16:09:09;;;;;;;0.75;0.10;;;;;;;;;;5015292;28;20061;-69
2022/01/25 16:11:35;;;;;;;0.90;0.20;;;;;;;;;;5015174;28;20101;-70
2022/01/25 16:14:00;;;;;;;0.10;0.00;;;;;;;;;;5015221;28;20065;-68
2022/01/25 16:16:25;;;;;;;0.20;0.03;;;;;;;;;;5015052;28;20097;-69
2022/01/25 16:18:51;;;;;;;0.40;0.10;;;;;;;;;;5015643;28;20242;-69
2022/01/25 16:21:16;;;;;;;0.47;0.20;;;;;;;;;;5014769;28;20252;-69
2022/01/25 16:23:42;;;;;;;0.08;0.00;;;;;;;;;;5015079;28;20469;-69
2022/01/25 16:26:13;;;;;;;0.82;0.20;;;;;;;;;;5014986;28;20425;-69
2022/01/25 16:28:38;;;;;;;0.17;0.10;;;;;;;;;;5015032;28;20018;-69
2022/01/25 16:31:10;;;;;;;0.30;0.10;;;;;;;;;;5014977;28;20026;-68
2022/01/25 16:33:37;;;;;;;0.63;0.20;;;;;;;;;;5014794;28;20251;-69
2022/01/25 16:36:02;;;;;;;0.70;0.20;;;;;;;;;;5014900;28;20010;-70
2022/01/25 16:38:28;;;;;;;0.47;0.40;;;;;;;;;;5014858;28;20150;-69
2022/01/25 16:40:53;;;;;;;0.30;0.10;;;;;;;;;;5014886;28;20482;-69
2022/01/25 16:43:18;;;;;;;0.40;0.00;;;;;;;;;;5013268;28;20030;-68